Time;durP1;ratioP1;P1;durP2;ratioP2;P2;SDS_P1;SDS_P2;PMS_P1;PMS_P2;Temp;Humidity;BMP_temperature;BMP_pressure;BME280_temperature;BME280_humidity;BME280_pressure;Samples;Min_cycle;Max_cycle;Signal;HPM_P1;HPM_P2
2023/05/15 00:00:30;;;;;;;3.63;2.00;;;20.00;72.80;;;;;;5040558;28;45328;-73
2023/05/15 00:02:57;;;;;;;3.08;1.98;;;20.00;72.90;;;;;;5107487;27;45159;-73
2023/05/15 00:05:24;;;;;;;4.15;2.13;;;20.00;72.90;;;;;;5048067;27;46548;-73
2023/05/15 00:07:52;;;;;;;3.65;2.17;;;20.00;72.80;;;;;;5043423;27;45337;-73
2023/05/15 00:10:19;;;;;;;2.58;2.15;;;20.00;72.90;;;;;;5038766;28;45251;-73
2023/05/15 00:12:45;;;;;;;2.63;2.03;;;20.00;72.90;;;;;;5032227;28;45296;-73
2023/05/15 00:15:12;;;;;;;2.20;1.90;;;20.00;72.90;;;;;;5038965;28;47842;-73
2023/05/15 00:17:40;;;;;;;2.25;1.77;;;20.00;73.00;;;;;;5042895;28;45288;-73
2023/05/15 00:20:08;;;;;;;3.53;2.25;;;20.00;73.00;;;;;;5042139;27;45271;-73
2023/05/15 00:22:35;;;;;;;2.50;1.88;;;20.00;73.00;;;;;;5118092;27;45424;-73
2023/05/15 00:25:04;;;;;;;2.45;1.90;;;20.00;73.10;;;;;;5035534;28;46800;-73
2023/05/15 00:27:30;;;;;;;2.78;2.17;;;20.00;73.00;;;;;;5042203;28;45670;-73
2023/05/15 00:29:57;;;;;;;2.17;1.98;;;20.00;73.10;;;;;;5028744;28;45269;-73
2023/05/15 00:32:24;;;;;;;3.08;2.00;;;20.00;73.10;;;;;;5040914;28;45384;-73
2023/05/15 00:34:51;;;;;;;4.18;2.10;;;20.00;73.10;;;;;;5041884;28;47702;-73
2023/05/15 00:37:17;;;;;;;3.80;2.00;;;20.00;73.10;;;;;;5041825;28;45902;-73
2023/05/15 00:39:44;;;;;;;2.00;1.80;;;20.00;73.10;;;;;;5030965;28;45350;-73
2023/05/15 00:42:13;;;;;;;2.78;1.92;;;20.00;73.30;;;;;;5038335;28;45295;-73
2023/05/15 00:44:41;;;;;;;2.85;1.90;;;20.00;73.30;;;;;;5030732;28;46297;-73
2023/05/15 00:47:09;;;;;;;3.60;2.45;;;20.00;73.40;;;;;;5090255;27;45346;-73
2023/05/15 00:49:38;;;;;;;3.50;2.05;;;20.00;73.30;;;;;;5078415;27;45272;-72
2023/05/15 00:52:07;;;;;;;3.15;2.10;;;20.00;73.30;;;;;;5034098;28;45509;-73
2023/05/15 00:54:34;;;;;;;2.78;2.20;;;20.00;73.40;;;;;;5036365;27;46563;-73
2023/05/15 00:57:03;;;;;;;3.75;2.33;;;20.00;73.40;;;;;;5039279;28;45477;-74
2023/05/15 00:59:33;;;;;;;2.38;2.05;;;20.00;73.40;;;;;;5037020;28;45281;-73
2023/05/15 01:02:00;;;;;;;2.13;1.85;;;20.00;73.40;;;;;;5039324;28;45387;-73
2023/05/15 01:04:27;;;;;;;4.13;2.00;;;19.90;73.40;;;;;;5042022;28;45238;-72
2023/05/15 01:06:53;;;;;;;2.30;1.80;;;19.90;73.30;;;;;;5044804;27;45516;-73
2023/05/15 01:09:23;;;;;;;2.70;2.03;;;20.00;73.50;;;;;;5034586;27;45336;-73
2023/05/15 01:11:53;;;;;;;2.35;2.10;;;20.00;73.40;;;;;;5042286;28;45387;-73
2023/05/15 01:14:20;;;;;;;2.65;2.15;;;20.00;73.40;;;;;;5041905;27;47102;-73
2023/05/15 01:16:48;;;;;;;2.25;1.77;;;20.00;73.40;;;;;;5046138;27;45400;-73
2023/05/15 01:19:15;;;;;;;2.22;1.80;;;20.00;73.30;;;;;;5034552;28;45198;-73
2023/05/15 01:22:16;;;;;;;3.08;1.88;;;20.00;73.50;;;;;;5042064;28;45550;-73
2023/05/15 01:25:03;;;;;;;4.28;2.10;;;20.00;73.40;;;;;;5037386;28;48294;-73
2023/05/15 01:27:36;;;;;;;3.83;2.28;;;20.00;73.30;;;;;;5041207;28;45580;-73
2023/05/15 01:30:12;;;;;;;6.47;2.08;;;20.00;73.40;;;;;;5042120;27;45322;-73
2023/05/15 01:32:46;;;;;;;3.17;2.10;;;20.00;73.40;;;;;;5022021;28;45485;-73
2023/05/15 01:35:21;;;;;;;2.25;2.05;;;20.00;73.40;;;;;;5090493;27;46574;-73
2023/05/15 01:37:55;;;;;;;3.30;2.38;;;20.00;73.40;;;;;;5041997;28;45295;-70
2023/05/15 01:40:25;;;;;;;2.33;2.03;;;19.90;73.30;;;;;;5042130;28;45268;-73
2023/05/15 01:42:55;;;;;;;2.38;2.17;;;20.00;73.40;;;;;;5036618;28;45486;-74
2023/05/15 01:45:24;;;;;;;3.38;1.88;;;19.90;73.30;;;;;;5041155;28;47092;-73
2023/05/15 01:47:54;;;;;;;2.65;1.90;;;19.90;73.20;;;;;;5032125;28;45248;-73
2023/05/15 01:50:22;;;;;;;3.58;2.03;;;19.90;73.30;;;;;;5039660;28;45244;-73
2023/05/15 01:52:53;;;;;;;2.90;2.05;;;19.90;73.30;;;;;;5027883;27;45603;-72
2023/05/15 01:55:23;;;;;;;2.72;2.00;;;19.90;73.20;;;;;;5041511;28;48256;-73
2023/05/15 01:57:51;;;;;;;3.75;2.47;;;19.90;73.20;;;;;;5041273;28;45297;-73
2023/05/15 02:00:21;;;;;;;2.40;2.20;;;19.90;73.20;;;;;;5034299;28;45145;-73
2023/05/15 02:02:49;;;;;;;3.22;2.15;;;19.90;73.10;;;;;;5037758;28;45458;-73
2023/05/15 02:05:17;;;;;;;2.88;2.20;;;19.90;73.10;;;;;;5041532;28;47701;-73
2023/05/15 02:07:45;;;;;;;2.90;2.10;;;19.90;73.10;;;;;;5038458;28;45260;-73
2023/05/15 02:10:13;;;;;;;2.33;1.80;;;19.90;73.10;;;;;;5038894;28;45186;-73
2023/05/15 02:12:42;;;;;;;2.47;2.28;;;19.90;73.10;;;;;;5024882;27;45365;-73
2023/05/15 02:15:10;;;;;;;3.08;2.50;;;20.00;73.20;;;;;;5037043;28;46307;-73
2023/05/15 02:17:38;;;;;;;3.10;2.20;;;19.90;73.10;;;;;;5040614;28;45612;-73
2023/05/15 02:20:07;;;;;;;2.60;2.20;;;20.00;73.10;;;;;;5038101;28;45411;-73
2023/05/15 02:22:34;;;;;;;4.00;2.20;;;19.90;72.90;;;;;;5053184;27;45463;-73
2023/05/15 02:25:00;;;;;;;3.38;2.28;;;19.90;72.80;;;;;;5040201;28;48025;-73
2023/05/15 02:27:29;;;;;;;2.53;2.30;;;19.90;72.80;;;;;;5040677;28;45379;-70
2023/05/15 02:30:08;;;;;;;2.58;2.20;;;19.90;72.70;;;;;;5039449;28;45276;-73
2023/05/15 02:32:50;;;;;;;2.83;2.33;;;20.00;73.20;;;;;;5033711;28;45420;-73
2023/05/15 02:35:22;;;;;;;2.15;1.95;;;19.90;73.80;;;;;;5038838;28;46640;-73
2023/05/15 02:37:53;;;;;;;2.97;2.30;;;19.90;72.70;;;;;;5040848;28;45282;-73
2023/05/15 02:40:23;;;;;;;2.90;2.53;;;19.90;72.70;;;;;;5041240;28;45248;-73
2023/05/15 02:42:53;;;;;;;2.65;2.10;;;19.90;72.60;;;;;;5035358;28;45233;-73
2023/05/15 02:45:20;;;;;;;3.53;2.17;;;19.90;72.70;;;;;;5040586;28;46428;-73
2023/05/15 02:47:50;;;;;;;3.65;2.03;;;19.90;72.60;;;;;;5040918;28;45305;-73
2023/05/15 02:50:17;;;;;;;2.53;1.88;;;19.90;72.60;;;;;;5039742;27;45235;-73
2023/05/15 02:52:44;;;;;;;2.90;2.13;;;19.90;72.70;;;;;;5046852;28;45371;-73
2023/05/15 02:55:11;;;;;;;3.33;2.30;;;19.90;72.70;;;;;;5029066;28;45384;-73
2023/05/15 02:57:37;;;;;;;2.80;2.15;;;19.90;72.70;;;;;;5043229;28;45404;-73
2023/05/15 03:00:07;;;;;;;3.05;2.38;;;19.90;72.70;;;;;;5038434;28;45367;-73
2023/05/15 03:02:34;;;;;;;4.22;2.50;;;19.90;73.70;;;;;;5044096;27;45281;-73
2023/05/15 03:05:03;;;;;;;3.40;2.60;;;19.80;72.60;;;;;;5043249;28;47198;-73
2023/05/15 03:07:30;;;;;;;4.35;2.70;;;19.80;72.60;;;;;;5037320;28;45243;-73
2023/05/15 03:09:56;;;;;;;3.38;2.70;;;19.80;72.60;;;;;;5043718;28;45291;-73
2023/05/15 03:12:23;;;;;;;3.55;2.53;;;19.80;72.60;;;;;;5043532;28;45564;-73
2023/05/15 03:14:50;;;;;;;2.75;2.38;;;19.80;72.60;;;;;;5032208;28;47023;-74
2023/05/15 03:17:17;;;;;;;3.00;2.60;;;19.80;72.70;;;;;;5041003;28;45197;-73
2023/05/15 03:19:43;;;;;;;2.65;2.38;;;19.80;72.60;;;;;;5042525;28;45284;-73
2023/05/15 03:22:11;;;;;;;3.58;2.55;;;19.80;72.60;;;;;;5033861;28;45599;-73
2023/05/15 03:24:38;;;;;;;4.03;3.08;;;19.80;72.60;;;;;;5024552;28;45395;-73
2023/05/15 03:27:05;;;;;;;3.67;2.50;;;19.80;72.50;;;;;;5039003;28;45406;-73
2023/05/15 03:29:32;;;;;;;3.33;2.80;;;19.80;72.50;;;;;;5023844;28;45253;-73
2023/05/15 03:31:59;;;;;;;4.45;3.15;;;19.80;72.40;;;;;;5031286;28;45520;-73
2023/05/15 03:34:26;;;;;;;4.80;2.63;;;19.80;72.40;;;;;;5038159;27;47545;-73
2023/05/15 03:36:52;;;;;;;4.28;2.95;;;19.80;72.40;;;;;;5039030;28;45274;-73
2023/05/15 03:39:21;;;;;;;3.88;2.90;;;19.80;72.40;;;;;;5043550;28;45451;-73
2023/05/15 03:41:47;;;;;;;3.75;2.95;;;19.80;72.30;;;;;;5042634;28;45470;-73
2023/05/15 03:44:14;;;;;;;3.83;2.88;;;19.90;72.40;;;;;;5036868;28;45743;-73
2023/05/15 03:46:41;;;;;;;2.88;2.58;;;19.80;72.20;;;;;;5043233;28;46053;-73
2023/05/15 03:49:08;;;;;;;4.43;3.10;;;19.80;72.30;;;;;;5030453;28;45484;-73
2023/05/15 03:51:35;;;;;;;3.60;3.00;;;19.80;72.30;;;;;;5029243;28;45261;-73
2023/05/15 03:54:04;;;;;;;3.70;2.97;;;19.80;72.20;;;;;;5049362;27;46322;-73
2023/05/15 03:56:32;;;;;;;4.45;2.90;;;19.80;72.20;;;;;;5042926;28;45503;-73
2023/05/15 03:58:59;;;;;;;4.45;3.20;;;19.80;72.20;;;;;;5043343;28;45436;-73
2023/05/15 04:01:26;;;;;;;3.80;2.83;;;19.80;72.10;;;;;;5062746;27;45245;-73
2023/05/15 04:03:53;;;;;;;5.00;3.35;;;19.80;72.10;;;;;;5024488;28;47764;-72
2023/05/15 04:06:20;;;;;;;3.15;2.55;;;19.80;72.10;;;;;;5041028;28;45443;-72
2023/05/15 04:08:46;;;;;;;4.80;3.20;;;19.80;72.10;;;;;;5042889;28;45346;-71
2023/05/15 04:11:13;;;;;;;3.80;3.15;;;19.80;72.10;;;;;;5029878;28;45514;-73
2023/05/15 04:13:41;;;;;;;3.80;2.95;;;19.80;72.20;;;;;;5039429;28;47537;-68
2023/05/15 04:16:08;;;;;;;7.18;3.03;;;19.80;72.30;;;;;;5037704;28;45421;-73
2023/05/15 04:18:35;;;;;;;2.60;2.33;;;19.80;72.50;;;;;;5047100;27;45222;-72
2023/05/15 04:21:02;;;;;;;4.22;2.90;;;19.80;72.50;;;;;;5070912;27;45181;-72
2023/05/15 04:23:29;;;;;;;3.08;2.70;;;19.80;72.40;;;;;;5041961;28;45258;-72
2023/05/15 04:25:55;;;;;;;3.45;2.83;;;19.80;72.40;;;;;;5042667;27;45319;-73
2023/05/15 04:28:22;;;;;;;3.65;3.03;;;19.80;72.40;;;;;;5041972;28;45279;-72
2023/05/15 04:30:51;;;;;;;3.97;3.03;;;19.80;72.40;;;;;;5042263;28;45484;-72
2023/05/15 04:33:17;;;;;;;3.42;2.63;;;19.80;72.30;;;;;;5052728;28;45290;-72
2023/05/15 04:35:44;;;;;;;3.17;2.45;;;19.80;72.30;;;;;;5062467;28;45355;-72
2023/05/15 04:38:11;;;;;;;3.10;2.78;;;19.80;73.40;;;;;;5043316;28;45317;-72
2023/05/15 04:40:38;;;;;;;3.97;3.25;;;19.80;72.30;;;;;;5036905;27;45538;-72
2023/05/15 04:43:05;;;;;;;4.03;2.90;;;19.80;72.20;;;;;;5039299;28;46596;-72
2023/05/15 04:45:32;;;;;;;4.18;3.22;;;19.80;72.20;;;;;;5077526;27;45520;-72
2023/05/15 04:48:00;;;;;;;4.38;3.60;;;19.80;72.20;;;;;;5042335;28;45324;-72
2023/05/15 04:50:27;;;;;;;5.60;3.53;;;19.80;72.20;;;;;;5042035;28;45514;-72
2023/05/15 04:52:54;;;;;;;4.65;3.60;;;19.80;72.10;;;;;;5032355;28;47341;-72
2023/05/15 04:55:20;;;;;;;4.97;3.47;;;19.80;72.10;;;;;;5041889;28;45391;-72
2023/05/15 04:57:47;;;;;;;5.35;3.20;;;19.80;72.00;;;;;;5038497;28;45270;-69
2023/05/15 05:00:15;;;;;;;4.15;3.30;;;19.80;71.90;;;;;;5040568;27;45445;-73
2023/05/15 05:02:42;;;;;;;7.03;3.33;;;19.80;71.80;;;;;;5042245;28;46081;-72
2023/05/15 05:05:13;;;;;;;3.17;2.80;;;19.80;71.70;;;;;;5042177;28;45325;-72
2023/05/15 05:07:41;;;;;;;6.13;3.22;;;19.80;71.70;;;;;;5042620;28;45378;-72
2023/05/15 05:10:09;;;;;;;5.38;3.30;;;19.80;71.60;;;;;;5042657;28;45375;-72
2023/05/15 05:12:36;;;;;;;3.70;2.72;;;19.80;71.60;;;;;;5042088;28;46947;-72
2023/05/15 05:15:02;;;;;;;4.97;3.42;;;19.80;71.50;;;;;;5041593;28;45257;-72
2023/05/15 05:17:30;;;;;;;3.83;3.33;;;19.90;71.50;;;;;;5037216;28;45137;-72
2023/05/15 05:19:56;;;;;;;5.05;3.60;;;19.90;71.50;;;;;;5034435;27;45452;-72
2023/05/15 05:22:25;;;;;;;4.40;3.30;;;19.90;71.50;;;;;;5029937;27;46626;-72
2023/05/15 05:24:52;;;;;;;4.93;3.28;;;19.90;71.40;;;;;;5037496;28;45239;-72
2023/05/15 05:27:18;;;;;;;7.53;3.72;;;19.90;71.40;;;;;;5041522;28;45242;-72
2023/05/15 05:29:45;;;;;;;5.70;4.10;;;19.90;71.40;;;;;;5041440;28;45566;-72
2023/05/15 05:32:12;;;;;;;4.70;3.58;;;19.90;72.40;;;;;;5021856;28;46405;-72
2023/05/15 05:34:39;;;;;;;4.55;3.65;;;19.90;71.40;;;;;;5022058;28;45345;-72
2023/05/15 05:37:06;;;;;;;4.80;4.10;;;19.90;71.40;;;;;;5022103;28;45198;-72
2023/05/15 05:39:34;;;;;;;4.15;3.40;;;19.90;71.30;;;;;;5023195;28;45576;-72
2023/05/15 05:42:01;;;;;;;4.75;3.60;;;19.80;71.30;;;;;;5040242;28;45293;-72
2023/05/15 05:44:28;;;;;;;5.28;3.95;;;19.80;71.20;;;;;;5041371;28;45496;-72
2023/05/15 05:46:55;;;;;;;5.00;3.55;;;19.90;71.20;;;;;;5042006;28;45373;-72
2023/05/15 05:49:21;;;;;;;5.13;3.95;;;19.80;71.10;;;;;;5040147;28;45299;-72
2023/05/15 05:51:48;;;;;;;5.32;3.97;;;19.80;71.10;;;;;;5034991;28;45236;-72
2023/05/15 05:54:17;;;;;;;5.07;3.90;;;19.80;71.10;;;;;;5041554;28;45347;-72
2023/05/15 05:56:45;;;;;;;3.65;3.22;;;19.80;71.10;;;;;;5041721;28;45341;-73
2023/05/15 05:59:12;;;;;;;4.55;3.35;;;19.90;71.20;;;;;;5023708;28;45308;-72
2023/05/15 06:01:39;;;;;;;4.97;3.97;;;19.80;71.10;;;;;;5041340;28;47844;-72
2023/05/15 06:04:05;;;;;;;5.07;3.92;;;19.90;71.10;;;;;;5041611;28;45323;-71
2023/05/15 06:06:33;;;;;;;5.90;3.83;;;19.90;71.10;;;;;;5041465;28;45482;-71
2023/05/15 06:09:00;;;;;;;5.07;3.65;;;19.90;71.20;;;;;;5039753;28;45382;-71
2023/05/15 06:11:26;;;;;;;4.20;3.80;;;19.80;71.20;;;;;;5040589;28;46065;-71
2023/05/15 06:13:55;;;;;;;6.00;3.45;;;19.80;71.20;;;;;;5029962;27;45403;-71
2023/05/15 06:16:22;;;;;;;4.88;3.70;;;19.80;71.20;;;;;;5041034;28;45481;-71
2023/05/15 06:18:49;;;;;;;5.10;3.55;;;19.80;71.20;;;;;;5041596;28;45249;-71
2023/05/15 06:21:15;;;;;;;5.18;3.75;;;19.80;71.20;;;;;;5040660;28;47260;-72
2023/05/15 06:23:42;;;;;;;6.38;3.92;;;19.80;71.10;;;;;;5040926;28;45271;-71
2023/05/15 06:26:09;;;;;;;5.32;4.07;;;19.80;71.00;;;;;;5040839;28;45190;-72
2023/05/15 06:28:36;;;;;;;7.15;4.47;;;19.80;71.10;;;;;;5034432;28;45259;-71
2023/05/15 06:31:04;;;;;;;5.82;4.40;;;19.80;70.90;;;;;;5040609;28;47964;-72
2023/05/15 06:33:31;;;;;;;5.43;4.03;;;19.80;70.80;;;;;;5040677;28;45424;-71
2023/05/15 06:35:58;;;;;;;6.10;4.20;;;19.80;70.80;;;;;;5067227;27;45359;-71
2023/05/15 06:38:25;;;;;;;5.78;4.03;;;19.80;70.80;;;;;;5046165;27;45568;-70
2023/05/15 06:40:52;;;;;;;6.10;4.20;;;19.80;70.80;;;;;;5037842;28;46484;-71
2023/05/15 06:43:18;;;;;;;7.15;4.60;;;19.80;70.70;;;;;;5040764;28;45515;-72
2023/05/15 06:45:45;;;;;;;6.32;4.40;;;19.80;70.60;;;;;;5041186;27;45336;-72
2023/05/15 06:48:13;;;;;;;5.68;4.10;;;19.80;70.50;;;;;;5034398;28;45323;-72
2023/05/15 06:50:40;;;;;;;5.65;3.90;;;19.80;70.50;;;;;;5025605;28;45226;-72
2023/05/15 06:53:07;;;;;;;5.82;4.25;;;19.80;70.50;;;;;;5040781;28;45437;-72
2023/05/15 06:55:35;;;;;;;5.18;4.10;;;19.80;70.60;;;;;;5040040;28;45423;-73
2023/05/15 06:58:02;;;;;;;4.38;3.88;;;19.90;70.60;;;;;;5029740;28;45338;-72
2023/05/15 07:00:28;;;;;;;5.85;4.28;;;19.80;70.50;;;;;;5039929;28;48215;-72
2023/05/15 07:02:56;;;;;;;5.93;4.10;;;19.90;70.30;;;;;;5040582;28;45257;-72
2023/05/15 07:05:24;;;;;;;4.88;3.88;;;19.90;70.30;;;;;;5128332;27;45332;-72
2023/05/15 07:07:51;;;;;;;6.50;4.55;;;19.80;70.10;;;;;;5111601;27;45438;-72
2023/05/15 07:10:18;;;;;;;5.25;4.13;;;19.90;70.30;;;;;;5040207;28;46532;-72
2023/05/15 07:12:45;;;;;;;5.28;4.40;;;19.90;70.50;;;;;;5040626;28;45158;-72
2023/05/15 07:15:12;;;;;;;5.75;4.18;;;19.90;70.40;;;;;;5039473;27;45343;-72
2023/05/15 07:17:39;;;;;;;5.45;4.00;;;19.90;70.30;;;;;;5037953;28;45301;-72
2023/05/15 07:20:06;;;;;;;5.93;3.80;;;19.90;70.30;;;;;;5039999;28;48063;-72
2023/05/15 07:22:34;;;;;;;5.50;3.92;;;19.90;70.10;;;;;;5040132;28;45280;-72
2023/05/15 07:25:01;;;;;;;5.95;4.38;;;19.90;70.20;;;;;;5031638;28;45364;-72
2023/05/15 07:27:28;;;;;;;6.18;4.40;;;19.90;70.20;;;;;;5078780;27;45368;-72
2023/05/15 07:29:55;;;;;;;5.28;4.43;;;19.90;70.30;;;;;;5034902;28;47437;-70
2023/05/15 07:32:21;;;;;;;5.60;4.38;;;19.90;70.30;;;;;;5039863;27;45409;-72
2023/05/15 07:34:48;;;;;;;5.55;4.13;;;19.90;70.20;;;;;;5040020;28;45337;-72
2023/05/15 07:37:15;;;;;;;7.28;4.50;;;19.90;70.00;;;;;;5039849;28;45572;-72
2023/05/15 07:39:43;;;;;;;6.38;4.82;;;19.90;70.00;;;;;;5032273;28;46591;-73
2023/05/15 07:42:10;;;;;;;6.82;4.43;;;19.90;70.10;;;;;;5040194;28;45308;-72
2023/05/15 07:44:36;;;;;;;6.18;4.45;;;19.90;70.10;;;;;;5043442;28;45362;-71
2023/05/15 07:47:03;;;;;;;4.97;4.20;;;19.90;70.10;;;;;;5042468;28;45322;-71
2023/05/15 07:49:30;;;;;;;6.45;4.82;;;19.90;70.30;;;;;;5043095;28;46030;-71
2023/05/15 07:51:57;;;;;;;7.18;4.13;;;19.90;70.10;;;;;;5034125;28;45419;-73
2023/05/15 07:54:25;;;;;;;5.72;4.22;;;19.90;70.00;;;;;;5041355;28;45386;-71
2023/05/15 07:56:53;;;;;;;5.60;4.68;;;19.90;70.00;;;;;;5042827;27;45342;-71
2023/05/15 07:59:20;;;;;;;5.32;4.28;;;19.90;69.90;;;;;;5042047;28;46544;-72
2023/05/15 08:01:47;;;;;;;6.38;4.20;;;19.80;69.90;;;;;;5042649;28;45323;-72
2023/05/15 08:04:15;;;;;;;5.95;4.22;;;19.80;69.80;;;;;;5042044;27;45386;-72
2023/05/15 08:06:42;;;;;;;7.57;4.30;;;19.80;69.80;;;;;;5040031;28;45508;-72
2023/05/15 08:09:09;;;;;;;7.10;4.43;;;19.80;69.70;;;;;;5042794;28;47475;-72
2023/05/15 08:11:36;;;;;;;7.47;4.47;;;19.80;69.50;;;;;;5040996;28;45168;-71
2023/05/15 08:14:04;;;;;;;6.13;4.32;;;19.80;69.60;;;;;;5042345;28;45328;-71
2023/05/15 08:16:31;;;;;;;5.15;4.07;;;19.80;69.60;;;;;;5043068;28;45257;-71
2023/05/15 08:19:02;;;;;;;7.22;4.80;;;19.80;69.50;;;;;;5043042;28;47930;-71
2023/05/15 08:21:29;;;;;;;5.75;4.18;;;19.90;69.20;;;;;;5050242;27;45620;-71
2023/05/15 08:23:56;;;;;;;8.35;4.90;;;19.80;68.80;;;;;;5038610;28;45255;-72
2023/05/15 08:26:23;;;;;;;7.10;4.85;;;19.80;68.70;;;;;;5041195;28;45568;-71
2023/05/15 08:28:50;;;;;;;7.15;4.93;;;19.80;68.60;;;;;;5033241;28;46784;-71
2023/05/15 08:31:18;;;;;;;6.47;4.85;;;19.80;68.40;;;;;;5041922;28;45396;-71
2023/05/15 08:33:45;;;;;;;8.35;4.97;;;19.90;68.70;;;;;;5051878;27;45412;-71
2023/05/15 08:36:12;;;;;;;7.25;5.53;;;19.90;68.80;;;;;;5043841;27;45737;-71
2023/05/15 08:38:38;;;;;;;7.50;4.85;;;19.90;68.90;;;;;;5042283;28;47245;-71
2023/05/15 08:41:11;;;;;;;5.95;4.78;;;19.90;69.10;;;;;;5034719;28;45248;-71
2023/05/15 08:43:40;;;;;;;7.57;5.35;;;19.90;69.20;;;;;;5036753;27;45211;-71
2023/05/15 08:46:07;;;;;;;7.45;5.07;;;19.90;69.20;;;;;;5036409;27;45271;-71
2023/05/15 08:48:37;;;;;;;7.72;5.22;;;19.90;69.40;;;;;;5031194;28;45486;-71
2023/05/15 08:51:04;;;;;;;5.90;4.78;;;19.90;69.40;;;;;;5025558;27;45510;-71
2023/05/15 08:53:31;;;;;;;6.43;4.43;;;19.90;69.40;;;;;;5040748;28;45325;-71
2023/05/15 08:55:58;;;;;;;5.80;4.38;;;19.90;69.40;;;;;;5041510;28;45462;-71
2023/05/15 08:58:27;;;;;;;7.15;4.13;;;19.90;69.50;;;;;;5042200;28;47087;-71
2023/05/15 09:00:55;;;;;;;6.35;4.78;;;19.90;69.60;;;;;;5042086;28;45461;-71
2023/05/15 09:03:23;;;;;;;5.30;3.97;;;19.90;69.50;;;;;;5040269;28;45290;-71
2023/05/15 09:05:52;;;;;;;7.15;4.05;;;19.90;69.40;;;;;;5032133;28;45568;-71
2023/05/15 09:08:22;;;;;;;5.82;4.22;;;19.90;69.40;;;;;;5041927;28;48008;-69
2023/05/15 09:10:49;;;;;;;5.38;4.03;;;19.90;69.40;;;;;;5042043;28;46105;-71
2023/05/15 09:13:17;;;;;;;5.93;4.35;;;19.90;69.30;;;;;;5042004;28;45378;-71
2023/05/15 09:15:46;;;;;;;5.78;4.00;;;19.90;69.30;;;;;;5040245;27;45285;-71
2023/05/15 09:18:15;;;;;;;5.55;4.18;;;20.00;69.50;;;;;;5041930;28;46880;-71
2023/05/15 09:20:42;;;;;;;5.30;4.00;;;20.00;69.40;;;;;;5041786;28;45800;-71
2023/05/15 09:23:23;;;;;;;7.72;4.30;;;20.00;69.40;;;;;;5037305;28;45295;-71
2023/05/15 09:25:52;;;;;;;5.18;4.18;;;20.00;69.30;;;;;;5041937;28;45624;-71
2023/05/15 09:28:27;;;;;;;6.03;4.00;;;20.00;69.40;;;;;;5042504;27;47079;-72
2023/05/15 09:30:59;;;;;;;5.95;3.80;;;20.00;69.40;;;;;;5054654;27;45368;-71
2023/05/15 09:33:31;;;;;;;6.53;4.50;;;20.00;69.60;;;;;;5037611;28;45448;-72
2023/05/15 09:35:58;;;;;;;6.85;4.28;;;20.00;69.60;;;;;;5041835;28;45290;-71
2023/05/15 09:38:27;;;;;;;4.97;3.75;;;20.00;69.60;;;;;;5041833;28;45442;-71
2023/05/15 09:41:02;;;;;;;6.20;3.97;;;19.90;69.50;;;;;;5033189;28;46287;-71
2023/05/15 09:43:29;;;;;;;4.70;3.60;;;20.00;69.70;;;;;;5032014;27;45291;-71
2023/05/15 09:45:56;;;;;;;3.88;3.20;;;20.00;69.80;;;;;;5037071;27;45533;-72
2023/05/15 09:48:24;;;;;;;4.57;3.50;;;20.00;69.90;;;;;;5049610;27;48333;-71
2023/05/15 09:50:50;;;;;;;5.22;3.90;;;20.00;70.00;;;;;;5032342;28;45397;-71
2023/05/15 09:53:17;;;;;;;5.45;3.75;;;20.00;70.10;;;;;;5037930;27;45300;-71
2023/05/15 09:55:47;;;;;;;5.25;3.50;;;20.00;70.00;;;;;;5040911;28;45189;-71
2023/05/15 09:58:16;;;;;;;4.75;3.42;;;20.00;69.90;;;;;;5041457;28;47468;-70
2023/05/15 10:00:44;;;;;;;6.05;3.47;;;20.00;70.90;;;;;;5038886;28;45298;-71
2023/05/15 10:03:11;;;;;;;5.70;3.30;;;20.00;69.80;;;;;;5039293;28;45218;-71
2023/05/15 10:05:39;;;;;;;3.58;2.63;;;20.00;70.00;;;;;;5032906;28;45462;-71
2023/05/15 10:08:06;;;;;;;3.53;2.92;;;20.00;70.00;;;;;;5040332;28;45256;-71
2023/05/15 10:10:33;;;;;;;3.20;2.50;;;20.00;70.10;;;;;;5032804;28;45393;-71
2023/05/15 10:13:03;;;;;;;2.90;2.35;;;20.00;70.00;;;;;;5037101;28;45345;-71
2023/05/15 10:15:31;;;;;;;4.10;3.22;;;20.00;70.00;;;;;;5041387;28;45476;-72
2023/05/15 10:17:58;;;;;;;3.25;2.90;;;20.00;70.00;;;;;;5041346;28;46336;-71
2023/05/15 10:20:26;;;;;;;3.67;2.92;;;20.00;70.00;;;;;;5040935;27;45193;-71
2023/05/15 10:22:54;;;;;;;3.78;3.03;;;20.00;70.00;;;;;;5035019;28;45277;-71
2023/05/15 10:25:27;;;;;;;3.05;2.72;;;20.00;69.90;;;;;;5036749;27;45668;-68
2023/05/15 10:27:54;;;;;;;5.18;3.08;;;20.00;70.10;;;;;;5040819;28;47684;-72
2023/05/15 10:30:23;;;;;;;33.15;5.93;;;20.00;76.80;;;;;;5040665;28;45326;-72
2023/05/15 10:32:50;;;;;;;13.98;3.15;;;20.00;78.20;;;;;;5025883;28;45468;-73
2023/05/15 10:35:18;;;;;;;9.13;3.10;;;20.00;75.40;;;;;;5038225;28;45281;-72
2023/05/15 10:37:47;;;;;;;5.63;3.05;;;19.90;75.10;;;;;;5040737;28;47494;-72
2023/05/15 10:40:16;;;;;;;6.97;3.30;;;19.90;75.90;;;;;;5030821;28;45262;-72
2023/05/15 10:42:44;;;;;;;5.50;2.58;;;19.90;76.00;;;;;;5041431;28;45222;-72
2023/05/15 10:45:11;;;;;;;6.65;3.20;;;19.90;76.90;;;;;;5040389;28;45396;-72
2023/05/15 10:47:41;;;;;;;4.05;2.70;;;19.90;77.60;;;;;;5032496;28;47392;-72
2023/05/15 10:50:09;;;;;;;5.82;3.05;;;19.90;77.80;;;;;;5032680;27;45342;-71
2023/05/15 10:52:37;;;;;;;3.55;3.08;;;19.90;78.20;;;;;;5041919;28;45247;-72
2023/05/15 10:55:07;;;;;;;4.30;3.15;;;19.80;78.00;;;;;;5035094;28;45773;-72
2023/05/15 10:57:34;;;;;;;5.70;3.00;;;19.80;78.10;;;;;;5072777;27;46430;-72
2023/05/15 11:00:02;;;;;;;3.83;2.90;;;19.80;78.10;;;;;;5046044;27;45535;-72
2023/05/15 11:02:30;;;;;;;3.33;2.85;;;19.80;78.60;;;;;;5055586;27;45487;-72
2023/05/15 11:05:00;;;;;;;4.47;2.75;;;19.80;79.10;;;;;;5039501;28;45527;-72
2023/05/15 11:07:27;;;;;;;6.32;3.35;;;19.80;78.90;;;;;;5041966;27;46609;-73
2023/05/15 11:09:54;;;;;;;3.47;2.75;;;19.80;79.60;;;;;;5039095;27;45329;-73
2023/05/15 11:12:22;;;;;;;3.95;2.78;;;19.80;79.80;;;;;;5047822;27;45298;-72
2023/05/15 11:15:20;;;;;;;5.03;3.05;;;19.80;79.60;;;;;;5041358;27;45733;-73
2023/05/15 11:18:03;;;;;;;5.10;3.17;;;19.80;80.30;;;;;;5040152;28;46654;-73
2023/05/15 11:20:38;;;;;;;3.78;2.85;;;19.80;80.70;;;;;;5043293;28;45456;-73
2023/05/15 11:23:05;;;;;;;4.50;3.15;;;19.80;81.30;;;;;;5041648;28;45429;-73
2023/05/15 11:25:33;;;;;;;3.28;2.80;;;19.80;81.50;;;;;;5040900;28;45498;-73
2023/05/15 11:28:02;;;;;;;4.85;2.80;;;19.80;82.00;;;;;;5043286;28;46621;-73
2023/05/15 11:30:36;;;;;;;3.92;2.33;;;19.80;81.90;;;;;;5042848;28;45261;-73
2023/05/15 11:33:07;;;;;;;2.80;2.50;;;19.80;82.20;;;;;;5035737;28;45439;-73
2023/05/15 11:35:38;;;;;;;3.42;2.55;;;19.80;81.90;;;;;;5043034;28;45328;-73
2023/05/15 11:38:14;;;;;;;3.95;2.75;;;19.80;82.20;;;;;;5042324;27;45679;-73
2023/05/15 11:40:46;;;;;;;3.95;2.88;;;19.90;82.60;;;;;;5034846;28;45625;-73
2023/05/15 11:43:20;;;;;;;3.13;2.55;;;19.90;82.70;;;;;;5036726;28;45538;-73
2023/05/15 11:45:48;;;;;;;3.53;2.55;;;19.90;82.30;;;;;;5042710;28;45261;-73
2023/05/15 11:48:17;;;;;;;4.65;2.83;;;19.90;82.10;;;;;;5042545;28;47717;-73
2023/05/15 11:50:46;;;;;;;3.78;2.78;;;19.90;81.70;;;;;;5042560;28;45419;-73
2023/05/15 11:53:13;;;;;;;4.13;2.58;;;19.90;81.50;;;;;;5076761;27;45196;-73
2023/05/15 11:55:42;;;;;;;3.90;2.90;;;19.90;81.90;;;;;;5042762;28;45571;-73
2023/05/15 11:58:13;;;;;;;3.42;2.67;;;19.90;81.60;;;;;;5036414;28;46568;-74
2023/05/15 12:00:40;;;;;;;6.05;3.25;;;19.90;81.20;;;;;;5035503;28;45389;-72
2023/05/15 12:03:14;;;;;;;3.92;2.90;;;19.90;81.70;;;;;;5042651;27;45499;-73
2023/05/15 12:05:40;;;;;;;6.28;2.60;;;19.90;82.30;;;;;;5035257;28;45595;-73
2023/05/15 12:08:11;;;;;;;4.35;3.05;;;19.90;81.50;;;;;;5042396;28;45406;-73
2023/05/15 12:10:42;;;;;;;5.47;2.80;;;19.90;81.40;;;;;;5060976;27;45284;-72
2023/05/15 12:13:10;;;;;;;3.47;2.72;;;19.90;83.50;;;;;;5064138;27;45342;-73
2023/05/15 12:15:38;;;;;;;3.35;2.50;;;19.90;82.90;;;;;;5042564;27;45167;-73
2023/05/15 12:18:06;;;;;;;5.28;3.13;;;19.90;83.50;;;;;;5054739;27;47594;-73
2023/05/15 12:20:33;;;;;;;4.38;2.85;;;19.90;83.50;;;;;;5042510;28;45339;-73
2023/05/15 12:23:00;;;;;;;4.45;2.92;;;19.90;83.80;;;;;;5042869;28;45266;-72
2023/05/15 12:25:28;;;;;;;3.50;2.60;;;19.90;84.20;;;;;;5042198;28;45407;-73
2023/05/15 12:27:57;;;;;;;3.80;2.70;;;19.90;84.50;;;;;;5042404;28;47080;-72
2023/05/15 12:30:24;;;;;;;4.55;2.95;;;19.90;84.60;;;;;;5061899;27;45412;-72
2023/05/15 12:32:51;;;;;;;3.00;2.70;;;19.90;84.70;;;;;;5042974;28;45220;-72
2023/05/15 12:35:19;;;;;;;5.25;2.58;;;19.90;84.40;;;;;;5075242;27;45407;-73
2023/05/15 12:37:46;;;;;;;3.42;2.40;;;19.90;84.40;;;;;;5041176;28;48111;-73
2023/05/15 12:40:14;;;;;;;3.10;2.42;;;19.90;84.00;;;;;;5042426;28;45253;-73
2023/05/15 12:42:43;;;;;;;4.25;2.75;;;19.90;83.70;;;;;;5042874;28;45180;-73
2023/05/15 12:45:14;;;;;;;4.35;2.72;;;19.90;84.30;;;;;;5036310;28;45352;-74
2023/05/15 12:47:42;;;;;;;3.92;2.72;;;19.90;84.30;;;;;;5042284;28;47327;-73
2023/05/15 12:50:13;;;;;;;4.43;2.80;;;19.90;84.40;;;;;;5040790;27;45285;-74
2023/05/15 12:52:41;;;;;;;3.55;2.67;;;19.90;85.60;;;;;;5042644;28;45276;-73